Time;durP1;ratioP1;P1;durP2;ratioP2;P2;SDS_P1;SDS_P2;PMS_P1;PMS_P2;Temp;Humidity;BMP_temperature;BMP_pressure;BME280_temperature;BME280_humidity;BME280_pressure;Samples;Min_cycle;Max_cycle;Signal;HPM_P1;HPM_P2
2021/12/03 00:01:21;;;;;;;11.00;9.18;;;;;;;11.34;52.51;98371.15;1726059;81;21058;-60
2021/12/03 00:03:47;;;;;;;12.98;9.40;;;;;;;11.33;52.49;98369.50;1729090;82;21051;-61
2021/12/03 00:06:14;;;;;;;12.33;9.73;;;;;;;11.33;52.49;98366.03;1734275;82;21814;-60
2021/12/03 00:08:41;;;;;;;11.48;8.85;;;;;;;11.32;52.50;98362.56;1688912;83;21068;-61
2021/12/03 00:11:10;;;;;;;12.40;9.53;;;;;;;11.32;52.48;98370.54;1726097;82;21086;-61
2021/12/03 00:13:37;;;;;;;11.18;9.08;;;;;;;11.33;52.47;98372.67;1710803;83;21059;-60
2021/12/03 00:16:04;;;;;;;12.55;9.38;;;;;;;11.31;52.47;98365.42;1697017;83;21013;-60
2021/12/03 00:18:31;;;;;;;13.30;9.65;;;;;;;11.31;52.45;98362.77;1720678;81;21074;-60
2021/12/03 00:21:00;;;;;;;11.57;9.70;;;;;;;11.31;52.45;98365.42;1730828;81;21046;-60
2021/12/03 00:23:28;;;;;;;10.23;9.03;;;;;;;11.31;52.45;98368.08;1749278;80;21076;-60
2021/12/03 00:25:56;;;;;;;10.95;8.93;;;;;;;11.29;52.47;98362.16;1741605;81;21790;-59
2021/12/03 00:28:23;;;;;;;14.55;9.93;;;;;;;11.30;52.46;98366.43;1732133;81;21545;-60
2021/12/03 00:30:49;;;;;;;12.05;10.13;;;;;;;11.30;52.44;98368.60;1741882;81;21139;-60
2021/12/03 00:33:16;;;;;;;12.15;9.50;;;;;;;11.30;52.40;98366.43;1727431;81;21014;-61
2021/12/03 00:35:43;;;;;;;11.40;8.90;;;;;;;11.29;52.40;98362.97;1706618;82;21081;-61
2021/12/03 00:38:09;;;;;;;12.10;8.98;;;;;;;11.29;52.40;98360.30;1699326;82;21088;-60
2021/12/03 00:40:39;;;;;;;10.90;9.63;;;;;;;11.29;52.38;98354.18;1719194;82;21010;-60
2021/12/03 00:43:07;;;;;;;13.22;10.13;;;;;;;11.29;52.39;98351.52;1703173;82;21204;-60
2021/12/03 00:45:33;;;;;;;11.20;9.60;;;;;;;11.28;52.38;98347.21;1681994;84;21142;-60
2021/12/03 00:48:00;;;;;;;12.40;9.80;;;;;;;11.28;52.38;98348.55;1676625;84;21109;-61
2021/12/03 00:50:27;;;;;;;12.23;9.13;;;;;;;11.27;52.34;98353.05;1692408;84;21019;-61
2021/12/03 00:52:54;;;;;;;11.35;9.53;;;;;;;11.27;52.34;98353.57;1678321;84;21118;-60
2021/12/03 00:55:22;;;;;;;12.05;9.58;;;;;;;11.27;52.34;98354.90;1667986;84;23220;-59
2021/12/03 00:57:48;;;;;;;12.35;10.30;;;;;;;11.26;52.34;98356.75;1694867;84;21043;-60
2021/12/03 01:00:22;;;;;;;12.18;10.05;;;;;;;11.26;52.33;98371.38;1676622;84;21081;-61
2021/12/03 01:02:48;;;;;;;12.73;10.63;;;;;;;11.26;52.33;98372.70;1679334;84;21741;-61
2021/12/03 01:05:14;;;;;;;11.97;9.40;;;;;;;11.25;52.31;98364.41;1690156;84;21076;-60
2021/12/03 01:07:41;;;;;;;10.85;9.73;;;;;;;11.25;52.30;98362.27;1691457;84;21156;-61
2021/12/03 01:10:08;;;;;;;11.97;9.80;;;;;;;11.25;52.30;98359.61;1677605;84;21138;-60
2021/12/03 01:12:36;;;;;;;12.30;9.80;;;;;;;11.25;52.30;98358.28;1691663;84;21015;-60
2021/12/03 01:15:05;;;;;;;12.50;9.88;;;;;;;11.25;52.30;98358.28;1689504;84;21078;-60
2021/12/03 01:17:31;;;;;;;12.28;9.95;;;;;;;11.24;52.27;98353.97;1693583;84;21102;-60
2021/12/03 01:19:59;;;;;;;13.00;10.10;;;;;;;11.24;52.28;98359.28;1718406;82;21092;-60
2021/12/03 01:22:25;;;;;;;12.95;10.53;;;;;;;11.22;52.27;98355.50;1715452;82;21139;-60
2021/12/03 01:24:52;;;;;;;10.98;9.40;;;;;;;11.23;52.27;98355.02;1724477;82;20998;-59
2021/12/03 01:27:18;;;;;;;12.28;9.45;;;;;;;11.22;52.29;98350.18;1718372;82;21045;-60
2021/12/03 01:29:45;;;;;;;11.75;9.85;;;;;;;11.20;52.26;98343.77;1688023;83;21060;-60
2021/12/03 01:32:11;;;;;;;11.80;10.00;;;;;;;11.21;52.25;98340.59;1701194;83;21085;-60
2021/12/03 01:34:38;;;;;;;12.45;10.60;;;;;;;11.20;52.25;98342.44;1733123;81;21079;-59
2021/12/03 01:37:04;;;;;;;12.15;10.45;;;;;;;11.20;52.25;98336.28;1732833;82;21007;-61
2021/12/03 01:39:32;;;;;;;12.88;10.53;;;;;;;11.20;52.26;98333.63;1732468;81;21516;-60
2021/12/03 01:41:58;;;;;;;13.18;9.88;;;;;;;11.18;52.25;98337.84;1726924;82;21052;-59
2021/12/03 01:44:25;;;;;;;11.43;9.68;;;;;;;11.18;52.25;98336.52;1737457;80;21966;-60
2021/12/03 01:46:51;;;;;;;10.48;8.88;;;;;;;11.18;52.24;98335.19;1699575;83;21097;-59
2021/12/03 01:49:17;;;;;;;12.40;10.35;;;;;;;11.18;52.23;98340.98;1733308;81;21042;-59
2021/12/03 01:51:44;;;;;;;13.08;10.00;;;;;;;11.18;52.24;98340.50;1729724;82;21022;-59
2021/12/03 01:54:11;;;;;;;11.00;9.25;;;;;;;11.18;52.24;98331.69;1746220;82;21286;-60
2021/12/03 01:56:39;;;;;;;11.30;9.65;;;;;;;11.17;52.24;98322.91;1748517;82;21173;-60
2021/12/03 01:59:07;;;;;;;10.98;9.45;;;;;;;11.17;52.21;98324.75;1686515;83;21037;-61
2021/12/03 02:01:33;;;;;;;12.23;9.15;;;;;;;11.18;52.19;98326.38;1688533;83;21825;-60
2021/12/03 02:04:00;;;;;;;11.33;9.05;;;;;;;11.17;52.18;98326.08;1705667;82;21046;-61
2021/12/03 02:06:28;;;;;;;13.22;10.95;;;;;;;11.17;52.18;98325.56;1732500;81;21042;-60
2021/12/03 02:08:55;;;;;;;10.72;9.13;;;;;;;11.17;52.18;98327.41;1729592;80;22353;-59
2021/12/03 02:11:22;;;;;;;12.78;9.90;;;;;;;11.16;52.17;98323.94;1739825;81;21060;-60
2021/12/03 02:13:48;;;;;;;11.20;9.40;;;;;;;11.16;52.17;98323.94;1732525;81;21029;-60
2021/12/03 02:16:16;;;;;;;11.28;9.65;;;;;;;11.16;52.17;98311.14;1687116;83;21037;-60
2021/12/03 02:18:43;;;;;;;11.48;9.35;;;;;;;11.15;52.18;98306.34;1730180;81;21081;-61
2021/12/03 02:21:10;;;;;;;12.33;9.88;;;;;;;11.15;52.17;98313.52;1738156;81;21076;-60
2021/12/03 02:23:36;;;;;;;12.58;9.53;;;;;;;11.15;52.17;98322.81;1685237;84;21010;-60
2021/12/03 02:26:04;;;;;;;10.85;8.78;;;;;;;11.15;52.18;98322.30;1698763;83;21295;-60
2021/12/03 02:28:36;;;;;;;12.40;10.03;;;;;;;11.16;52.14;98320.44;1726624;82;21565;-61
2021/12/03 02:31:04;;;;;;;11.28;9.60;;;;;;;11.15;52.13;98315.65;1735347;81;21003;-60
2021/12/03 02:33:33;;;;;;;11.10;9.30;;;;;;;11.15;52.13;98311.66;1731750;82;21152;-60
2021/12/03 02:36:00;;;;;;;11.57;9.80;;;;;;;11.15;52.14;98310.33;1740356;82;21551;-60
2021/12/03 02:38:27;;;;;;;12.00;9.83;;;;;;;11.15;52.14;98302.36;1730342;80;21004;-59
2021/12/03 02:40:54;;;;;;;10.65;9.30;;;;;;;11.15;52.13;98298.89;1695373;83;21041;-60
2021/12/03 02:43:21;;;;;;;12.85;10.23;;;;;;;11.14;52.12;98288.75;1707502;83;21486;-60
2021/12/03 02:45:47;;;;;;;12.25;10.55;;;;;;;11.14;52.11;98286.09;1719016;81;21130;-60
2021/12/03 02:48:15;;;;;;;13.38;10.20;;;;;;;11.14;52.10;98279.45;1714845;82;21102;-61
2021/12/03 02:50:41;;;;;;;12.37;9.33;;;;;;;11.15;52.07;98285.60;1716410;81;21526;-60
2021/12/03 02:53:08;;;;;;;10.55;9.45;;;;;;;11.14;52.10;98284.77;1724006;81;21038;-60
2021/12/03 02:55:34;;;;;;;10.58;9.35;;;;;;;11.14;52.08;98284.77;1734423;82;21058;-61
2021/12/03 02:58:00;;;;;;;11.25;9.83;;;;;;;11.15;52.08;98270.47;1688554;83;21121;-60
2021/12/03 03:00:27;;;;;;;11.68;9.53;;;;;;;11.14;52.06;98278.12;1729669;81;21526;-60
2021/12/03 03:02:54;;;;;;;11.35;9.65;;;;;;;11.15;52.06;98272.31;1681252;84;21049;-59
2021/12/03 03:05:21;;;;;;;11.80;9.78;;;;;;;11.14;52.04;98265.35;1684230;84;21045;-60
2021/12/03 03:07:48;;;;;;;12.15;10.20;;;;;;;11.14;52.05;98276.79;1689612;83;21046;-60
2021/12/03 03:10:22;;;;;;;11.50;9.83;;;;;;;11.14;52.04;98269.34;1726123;82;22049;-60
2021/12/03 03:12:48;;;;;;;12.13;9.98;;;;;;;11.15;52.06;98270.98;1729717;82;21038;-61
2021/12/03 03:15:16;;;;;;;12.78;9.58;;;;;;;11.15;52.05;98273.64;1726047;81;21074;-61
2021/12/03 03:17:43;;;;;;;10.50;9.40;;;;;;;11.13;52.04;98276.50;1739585;82;21018;-60
2021/12/03 03:20:10;;;;;;;12.45;10.75;;;;;;;11.15;52.03;98272.31;1694835;83;21064;-60
2021/12/03 03:22:38;;;;;;;13.08;10.35;;;;;;;11.15;52.00;98269.66;1680897;83;21166;-59
2021/12/03 03:25:07;;;;;;;12.25;9.68;;;;;;;11.14;52.01;98268.01;1723928;81;21494;-61
2021/12/03 03:27:34;;;;;;;10.68;8.90;;;;;;;11.15;52.04;98265.67;1722778;81;21045;-60
2021/12/03 03:30:00;;;;;;;11.03;9.83;;;;;;;11.14;52.01;98259.52;1686615;83;21025;-60
2021/12/03 03:32:28;;;;;;;11.03;9.83;;;;;;;11.14;52.03;98254.20;1736165;82;21083;-59
2021/12/03 03:34:54;;;;;;;13.28;9.95;;;;;;;11.14;52.03;98244.09;1716422;81;21136;-60
2021/12/03 03:37:20;;;;;;;11.40;9.70;;;;;;;11.14;52.00;98240.10;1736433;82;21479;-60
2021/12/03 03:39:47;;;;;;;10.98;9.63;;;;;;;11.14;51.99;98230.28;1722526;82;21050;-60
2021/12/03 03:42:13;;;;;;;11.75;9.85;;;;;;;11.14;52.00;98222.30;1715365;82;21022;-59
2021/12/03 03:44:41;;;;;;;11.20;9.75;;;;;;;11.14;52.00;98224.96;1735138;81;21562;-59
2021/12/03 03:47:08;;;;;;;11.40;9.73;;;;;;;11.14;51.99;98218.31;1714435;82;21084;-59
2021/12/03 03:49:36;;;;;;;10.10;9.10;;;;;;;11.15;51.98;98215.17;1719254;81;21458;-60
2021/12/03 03:52:04;;;;;;;11.25;9.28;;;;;;;11.14;51.98;98206.36;1722901;82;21002;-60
2021/12/03 03:54:30;;;;;;;10.25;9.13;;;;;;;11.15;51.97;98215.17;1718053;82;21062;-60
2021/12/03 03:56:59;;;;;;;10.58;9.00;;;;;;;11.14;51.98;98220.17;1702351;83;21093;-59
2021/12/03 03:59:25;;;;;;;12.90;10.25;;;;;;;11.15;51.96;98215.98;1687628;84;21218;-60
2021/12/03 04:01:52;;;;;;;12.73;10.23;;;;;;;11.14;51.96;98209.02;1714909;82;21011;-59
2021/12/03 04:04:20;;;;;;;10.13;9.05;;;;;;;11.15;51.97;98212.52;1724429;82;21020;-59
2021/12/03 04:06:47;;;;;;;11.63;9.90;;;;;;;11.14;51.98;98206.36;1684469;83;21561;-59
2021/12/03 04:09:13;;;;;;;11.75;10.32;;;;;;;11.15;51.96;98208.00;1724563;82;21551;-60
2021/12/03 04:11:40;;;;;;;11.33;9.83;;;;;;;11.15;51.95;98207.20;1737875;81;21122;-60
2021/12/03 04:14:06;;;;;;;10.85;9.10;;;;;;;11.14;51.92;98199.71;1742745;82;20991;-60
2021/12/03 04:16:33;;;;;;;12.95;9.23;;;;;;;11.15;51.95;98217.83;1686547;83;21025;-59
2021/12/03 04:18:59;;;;;;;13.08;10.18;;;;;;;11.13;51.93;98207.40;1732462;81;21143;-60
2021/12/03 04:21:25;;;;;;;11.25;10.03;;;;;;;11.13;51.91;98207.40;1737377;80;21068;-59
2021/12/03 04:23:52;;;;;;;11.20;9.68;;;;;;;11.13;51.92;98211.38;1743614;81;21217;-61
2021/12/03 04:26:21;;;;;;;11.90;9.08;;;;;;;11.13;51.93;98203.41;1694747;82;21361;-61
2021/12/03 04:28:47;;;;;;;12.93;10.90;;;;;;;11.13;51.90;98192.78;1704856;82;21056;-61
2021/12/03 04:31:13;;;;;;;12.93;10.13;;;;;;;11.13;51.92;98189.31;1690776;84;22227;-60
2021/12/03 04:33:40;;;;;;;11.60;9.90;;;;;;;11.11;51.89;98196.69;1688568;84;21103;-60
2021/12/03 04:36:06;;;;;;;11.25;9.53;;;;;;;11.12;51.93;98203.61;1691921;83;21097;-60
2021/12/03 04:38:32;;;;;;;11.10;9.38;;;;;;;11.11;51.92;98210.78;1707437;82;21573;-60
2021/12/03 04:41:01;;;;;;;11.25;9.35;;;;;;;11.11;51.91;98213.44;1715369;82;21104;-60
2021/12/03 04:43:28;;;;;;;11.15;9.95;;;;;;;11.09;51.90;98208.84;1707767;83;21049;-60
2021/12/03 04:45:54;;;;;;;11.53;9.83;;;;;;;11.11;51.88;98211.30;1701121;82;21002;-61
2021/12/03 04:48:21;;;;;;;10.68;9.38;;;;;;;11.11;51.91;98205.98;1697290;83;21081;-59
2021/12/03 04:50:48;;;;;;;11.63;10.43;;;;;;;11.11;51.88;98208.64;1706432;82;21455;-60
2021/12/03 04:53:15;;;;;;;12.20;10.05;;;;;;;11.11;51.88;98217.95;1668217;84;21106;-60
2021/12/03 04:55:42;;;;;;;12.18;9.80;;;;;;;11.10;51.87;98210.46;1677847;84;21562;-59
2021/12/03 04:58:08;;;;;;;11.60;9.55;;;;;;;11.10;51.88;98204.34;1678628;84;21011;-60
2021/12/03 05:00:47;;;;;;;11.28;10.18;;;;;;;11.10;51.88;98209.66;1685638;84;20994;-61
2021/12/03 05:03:13;;;;;;;10.82;9.63;;;;;;;11.10;51.88;98205.67;1684414;84;21157;-60
2021/12/03 05:05:44;;;;;;;11.20;9.33;;;;;;;11.09;51.88;98191.58;1689809;84;21511;-60
2021/12/03 05:08:11;;;;;;;10.90;9.63;;;;;;;11.09;51.86;98195.56;1686744;84;21075;-60
2021/12/03 05:10:40;;;;;;;11.70;10.50;;;;;;;11.08;51.89;98185.13;1688350;84;21074;-59
2021/12/03 05:13:13;;;;;;;11.78;10.50;;;;;;;11.08;51.87;98177.16;1675929;84;21159;-61
2021/12/03 05:15:40;;;;;;;13.62;10.20;;;;;;;11.07;51.87;98175.02;1689747;84;21579;-60
2021/12/03 05:18:08;;;;;;;12.53;10.32;;;;;;;11.07;51.87;98168.87;1697321;84;21011;-59
2021/12/03 05:20:34;;;;;;;11.85;9.95;;;;;;;11.07;51.86;98157.75;1675817;84;21139;-60
2021/12/03 05:23:01;;;;;;;12.47;9.85;;;;;;;11.06;51.87;98156.63;1690024;83;21570;-61
2021/12/03 05:25:31;;;;;;;10.82;9.38;;;;;;;11.06;51.87;98146.80;1684279;84;21166;-62
2021/12/03 05:27:57;;;;;;;11.30;9.90;;;;;;;11.07;51.86;98137.81;1696825;82;21570;-61
2021/12/03 05:30:24;;;;;;;11.65;10.45;;;;;;;11.07;51.85;98130.33;1673929;85;21037;-60
2021/12/03 05:32:50;;;;;;;11.30;10.10;;;;;;;11.07;51.84;98133.83;1724518;82;21000;-61
2021/12/03 05:35:17;;;;;;;11.22;9.15;;;;;;;11.07;51.82;98135.16;1718565;82;21621;-60
2021/12/03 05:37:43;;;;;;;11.50;10.23;;;;;;;11.08;51.83;98143.94;1682394;82;21116;-61
2021/12/03 05:40:11;;;;;;;12.10;10.23;;;;;;;11.09;51.82;98152.23;1723083;81;21594;-62
2021/12/03 05:42:38;;;;;;;10.90;9.78;;;;;;;11.08;51.83;98151.39;1724587;82;21046;-60
2021/12/03 05:45:08;;;;;;;11.78;9.55;;;;;;;11.09;51.80;98151.70;1724943;80;20987;-61
2021/12/03 05:47:34;;;;;;;11.70;9.40;;;;;;;11.08;51.81;98148.73;1725609;81;21003;-60
2021/12/03 05:50:01;;;;;;;12.35;10.78;;;;;;;11.08;51.82;98152.72;1684646;84;21124;-60
2021/12/03 05:52:27;;;;;;;11.35;9.15;;;;;;;11.08;51.83;98150.58;1713081;82;21092;-60
2021/12/03 05:54:54;;;;;;;11.50;10.10;;;;;;;11.08;51.81;98146.08;1689917;83;21601;-61
2021/12/03 05:57:20;;;;;;;11.38;9.80;;;;;;;11.08;51.83;98136.77;1706187;83;21554;-61
2021/12/03 05:59:46;;;;;;;11.22;9.55;;;;;;;11.09;51.81;98146.39;1693506;84;21046;-60
2021/12/03 06:02:13;;;;;;;12.18;10.23;;;;;;;11.09;51.80;98146.91;1731053;82;21129;-60
2021/12/03 06:04:39;;;;;;;10.40;9.20;;;;;;;11.09;51.81;98148.24;1726694;82;21081;-62
2021/12/03 06:07:06;;;;;;;11.68;10.43;;;;;;;11.11;51.78;98160.80;1732654;82;21090;-61
2021/12/03 06:09:33;;;;;;;11.05;8.90;;;;;;;11.11;51.80;98176.23;1740290;82;21105;-62
2021/12/03 06:12:01;;;;;;;12.50;9.58;;;;;;;11.10;51.78;98187.87;1727729;81;21089;-62
2021/12/03 06:14:29;;;;;;;11.43;9.10;;;;;;;11.11;51.79;98193.50;1723097;82;21838;-62
2021/12/03 06:16:56;;;;;;;10.65;9.05;;;;;;;11.12;51.79;98211.59;1723060;82;21653;-61
2021/12/03 06:19:23;;;;;;;11.53;9.25;;;;;;;11.13;51.79;98214.56;1694416;84;21268;-62
2021/12/03 06:21:49;;;;;;;10.18;8.80;;;;;;;11.14;51.78;98221.50;1702248;83;21036;-61
2021/12/03 06:24:16;;;;;;;10.58;8.90;;;;;;;11.14;51.76;98223.63;1713109;83;21526;-60
2021/12/03 06:26:42;;;;;;;10.72;8.95;;;;;;;11.15;51.76;98238.57;1714244;83;21080;-61
2021/12/03 06:29:09;;;;;;;10.43;9.33;;;;;;;11.17;51.74;98242.36;1735063;81;21017;-61
2021/12/03 06:31:35;;;;;;;13.25;9.83;;;;;;;11.16;51.75;98238.89;1737804;82;21522;-61
2021/12/03 06:34:02;;;;;;;9.75;8.60;;;;;;;11.17;51.74;98256.45;1703293;83;21090;-61
2021/12/03 06:36:28;;;;;;;10.58;8.93;;;;;;;11.17;51.73;98244.49;1734312;82;21010;-60
2021/12/03 06:38:56;;;;;;;12.10;9.73;;;;;;;11.18;51.72;98245.30;1731450;80;21112;-62
2021/12/03 06:41:22;;;;;;;11.53;9.23;;;;;;;11.18;51.72;98240.83;1743688;82;21067;-62
2021/12/03 06:43:49;;;;;;;10.38;8.88;;;;;;;11.20;51.71;98245.91;1714457;83;21009;-61
2021/12/03 06:46:15;;;;;;;11.35;9.48;;;;;;;11.19;51.70;98246.95;1745010;80;21066;-62
2021/12/03 06:48:41;;;;;;;10.53;9.43;;;;;;;11.20;51.70;98261.36;1733283;81;21016;-61
2021/12/03 06:51:09;;;;;;;10.43;8.73;;;;;;;11.19;51.70;98263.70;1706895;83;21026;-61
2021/12/03 06:53:56;;;;;;;10.30;8.60;;;;;;;11.20;51.70;98268.50;1707331;83;21018;-60
2021/12/03 06:56:19;;;;;;;10.90;8.93;;;;;;;11.21;51.69;98269.63;1688340;82;21077;-60
2021/12/03 06:58:38;;;;;;;9.55;8.55;;;;;;;11.21;51.69;98270.15;1687579;83;21078;-61
2021/12/03 07:01:05;;;;;;;10.70;9.15;;;;;;;11.21;51.67;98263.50;1736329;81;21086;-60
2021/12/03 07:03:31;;;;;;;12.55;9.83;;;;;;;11.23;51.66;98269.95;1693397;83;21163;-61
2021/12/03 07:05:59;;;;;;;10.90;9.20;;;;;;;11.23;51.66;98264.63;1732591;82;21049;-62
2021/12/03 07:08:26;;;;;;;11.38;9.10;;;;;;;11.25;51.67;98254.60;1712090;82;21647;-59
2021/12/03 07:10:52;;;;;;;11.05;9.75;;;;;;;11.25;51.67;98245.30;1709911;82;21001;-61
2021/12/03 07:13:19;;;;;;;11.38;10.15;;;;;;;11.24;51.64;98240.47;1690683;82;21111;-61
2021/12/03 07:15:46;;;;;;;10.72;9.63;;;;;;;11.25;51.66;98242.13;1733481;82;21149;-61
2021/12/03 07:18:12;;;;;;;11.40;9.03;;;;;;;11.25;51.66;98240.79;1692597;83;21027;-60
2021/12/03 07:20:39;;;;;;;12.45;10.55;;;;;;;11.25;51.64;98247.44;1696184;82;21085;-60
2021/12/03 07:23:06;;;;;;;11.63;8.78;;;;;;;11.26;51.67;98245.09;1703109;83;21483;-61
2021/12/03 07:25:32;;;;;;;10.82;9.15;;;;;;;11.26;51.66;98239.78;1698168;82;21033;-61
2021/12/03 07:27:58;;;;;;;10.88;9.03;;;;;;;11.27;51.64;98233.42;1720479;82;21519;-61
2021/12/03 07:30:30;;;;;;;10.48;9.18;;;;;;;11.29;51.64;98238.53;1738312;81;21054;-62
2021/12/03 07:32:54;;;;;;;11.97;9.78;;;;;;;11.29;51.61;98235.88;1735739;81;21129;-60
2021/12/03 07:35:20;;;;;;;11.10;9.13;;;;;;;11.30;51.63;98246.80;1695265;83;21515;-60
2021/12/03 07:37:46;;;;;;;10.95;9.83;;;;;;;11.31;51.58;98245.78;1682284;83;21005;-60
2021/12/03 07:40:13;;;;;;;11.83;10.00;;;;;;;11.31;51.61;98251.10;1720735;81;21780;-61
2021/12/03 07:42:40;;;;;;;10.18;9.08;;;;;;;11.33;51.60;98253.04;1720010;80;21011;-61
2021/12/03 07:45:08;;;;;;;10.85;9.20;;;;;;;11.32;51.58;98252.72;1713577;82;21007;-62
2021/12/03 07:47:36;;;;;;;10.13;8.90;;;;;;;11.33;51.60;98254.37;1697376;83;21042;-61
2021/12/03 07:50:06;;;;;;;12.30;10.38;;;;;;;11.34;51.57;98261.33;1684835;83;21092;-60
2021/12/03 07:52:34;;;;;;;11.65;9.35;;;;;;;11.34;51.57;98262.66;1719856;83;20999;-61
2021/12/03 07:55:04;;;;;;;10.80;9.50;;;;;;;11.35;51.56;98268.27;1711143;83;21049;-61
2021/12/03 07:57:31;;;;;;;10.98;9.68;;;;;;;11.36;51.56;98272.57;1723389;82;21045;-60
2021/12/03 07:59:57;;;;;;;10.32;9.10;;;;;;;11.35;51.56;98269.59;1727195;81;21763;-61
2021/12/03 08:02:24;;;;;;;10.85;9.65;;;;;;;11.36;51.55;98268.59;1730193;82;21034;-61
2021/12/03 08:04:50;;;;;;;11.25;10.00;;;;;;;11.36;51.54;98269.39;1731477;82;23257;-61
2021/12/03 08:07:18;;;;;;;12.05;9.90;;;;;;;11.37;51.54;98278.98;1734466;80;21006;-61
2021/12/03 08:09:45;;;;;;;11.25;9.33;;;;;;;11.38;51.53;98273.18;1737913;82;21096;-62
2021/12/03 08:12:11;;;;;;;11.70;9.53;;;;;;;11.38;51.52;98272.66;1730793;80;21036;-61
2021/12/03 08:14:39;;;;;;;10.60;8.98;;;;;;;11.40;51.50;98273.27;1726439;80;21022;-60
2021/12/03 08:17:06;;;;;;;12.00;9.58;;;;;;;11.40;51.50;98275.92;1742184;80;21116;-61
2021/12/03 08:19:32;;;;;;;11.33;9.78;;;;;;;11.41;51.49;98293.52;1686220;83;21086;-59
2021/12/03 08:21:58;;;;;;;10.08;8.88;;;;;;;11.43;51.47;98291.96;1696509;82;21513;-60
2021/12/03 08:24:25;;;;;;;9.85;8.85;;;;;;;11.43;51.48;98273.34;1727238;82;21120;-61
2021/12/03 08:26:51;;;;;;;10.88;9.50;;;;;;;11.44;51.47;98269.67;1729137;80;21091;-62
2021/12/03 08:29:18;;;;;;;11.35;9.53;;;;;;;11.46;51.51;98260.17;1706053;83;21159;-63
2021/12/03 08:31:45;;;;;;;11.55;9.60;;;;;;;11.47;51.59;98261.78;1700293;82;21022;-63
2021/12/03 08:37:10;;;;;;;11.25;9.98;;;;;;;11.53;51.64;98233.85;1799162;78;29250;-60
2021/12/03 08:39:37;;;;;;;10.68;8.75;;;;;;;11.50;51.62;98235.59;1767930;79;21037;-62
2021/12/03 08:42:05;;;;;;;10.75;9.38;;;;;;;11.53;51.57;98228.53;1771905;79;21131;-62
2021/12/03 08:44:32;;;;;;;10.72;8.80;;;;;;;11.55;51.58;98223.81;1773267;78;21008;-61
2021/12/03 08:47:03;;;;;;;11.40;9.15;;;;;;;11.56;51.55;98233.41;1769161;80;20978;-61
2021/12/03 08:57:14;;;;;;;12.18;9.23;;;;;;;11.61;51.46;98264.72;1776833;80;20958;-61
2021/12/03 08:59:41;;;;;;;10.18;9.15;;;;;;;11.62;51.47;98272.98;1772171;80;21839;-63
2021/12/03 09:02:07;;;;;;;12.03;10.32;;;;;;;11.59;51.47;98263.59;1778749;79;21064;-63
2021/12/03 09:04:34;;;;;;;10.85;9.53;;;;;;;11.63;51.43;98263.98;1771928;80;21527;-62
2021/12/03 09:07:01;;;;;;;11.10;9.45;;;;;;;11.63;51.43;98271.13;1783271;79;21130;-61
2021/12/03 09:09:27;;;;;;;11.08;9.60;;;;;;;11.64;51.42;98278.91;1783761;80;21577;-61
2021/12/03 09:11:54;;;;;;;10.68;9.58;;;;;;;11.64;51.42;98284.22;1781732;80;21178;-62
2021/12/03 09:14:43;;;;;;;10.25;8.73;;;;;;;11.64;51.40;98278.91;1787702;79;21500;-61
2021/12/03 09:19:50;;;;;;;11.08;9.43;;;;;;;11.65;51.40;98281.05;1779356;78;21138;-61
2021/12/03 09:22:10;;;;;;;12.33;9.28;;;;;;;11.64;51.39;98302.84;1782031;80;21064;-62
2021/12/03 09:24:37;;;;;;;10.53;9.15;;;;;;;11.65;51.40;98297.00;1777115;80;21049;-62
2021/12/03 09:27:04;;;;;;;10.60;9.45;;;;;;;11.65;51.38;98306.31;1781714;80;21119;-62
2021/12/03 09:29:35;;;;;;;11.33;9.00;;;;;;;11.64;51.38;98316.14;1784732;79;21006;-61
2021/12/03 09:32:02;;;;;;;11.28;9.73;;;;;;;11.64;51.38;98306.03;1766621;79;21137;-62
2021/12/03 09:34:30;;;;;;;11.05;9.05;;;;;;;11.64;51.38;98298.86;1774925;80;21033;-62
2021/12/03 09:36:57;;;;;;;11.35;9.20;;;;;;;11.65;51.38;98317.79;1775339;80;21057;-61
2021/12/03 09:39:24;;;;;;;11.38;9.93;;;;;;;11.64;51.38;98318.00;1771727;80;21502;-62
2021/12/03 09:41:53;;;;;;;10.90;9.75;;;;;;;11.65;51.37;98312.96;1771587;80;20982;-61
2021/12/03 09:44:20;;;;;;;10.40;9.38;;;;;;;11.64;51.34;98299.38;1760868;79;21044;-62
2021/12/03 09:46:47;;;;;;;12.00;10.03;;;;;;;11.65;51.34;98299.66;1766086;80;21507;-61
2021/12/03 09:51:54;;;;;;;11.33;9.60;;;;;;;11.64;51.46;98310.02;1747249;80;21070;-63
2021/12/03 09:56:45;;;;;;;12.18;9.78;;;;;;;11.63;51.47;98302.55;1761650;80;21129;-64
2021/12/03 10:02:08;;;;;;;11.73;10.03;;;;;;;11.63;51.49;98308.37;1759532;80;21650;-64
2021/12/03 10:04:45;;;;;;;10.72;9.63;;;;;;;11.63;51.49;98316.34;1767222;80;21088;-62
2021/12/03 10:12:49;;;;;;;10.50;9.40;;;;;;;11.61;51.47;98296.11;1764626;80;21030;-63
2021/12/03 10:15:33;;;;;;;10.53;9.53;;;;;;;11.60;51.49;98289.66;1767268;80;22260;-63
2021/12/03 10:37:09;;;;;;;11.18;9.30;;;;;;;11.55;51.46;98342.66;1758445;80;21152;-62
2021/12/03 10:39:41;;;;;;;9.53;8.33;;;;;;;11.53;51.48;98350.88;1760551;80;21058;-64
2021/12/03 10:47:22;;;;;;;11.20;8.85;;;;;;;11.53;51.46;98367.32;1757745;79;21073;-63
2021/12/03 10:50:48;;;;;;;11.25;7.95;;;;;;;11.52;51.46;98375.81;1754169;80;21152;-63
2021/12/03 10:52:31;;;;;;;9.03;8.13;;;;;;;11.52;51.44;98373.16;1739391;80;21039;-63
2021/12/03 10:55:19;;;;;;;9.13;8.23;;;;;;;11.52;51.43;98378.48;1757426;80;21030;-62
2021/12/03 11:30:03;;;;;;;8.20;7.40;;;;;;;11.48;51.35;98413.16;1752059;80;21498;-64
2021/12/03 11:35:30;;;;;;;6.97;6.25;;;;;;;11.48;51.33;98415.02;1767917;80;21049;-63
2021/12/03 11:59:23;;;;;;;7.00;6.30;;;;;;;11.45;51.25;98480.05;1763983;80;21337;-65
2021/12/03 12:32:08;;;;;;;6.20;5.60;;;;;;;11.35;51.30;98530.97;1755975;80;21513;-65
2021/12/03 12:33:43;;;;;;;6.05;5.22;;;;;;;11.35;51.33;98534.14;1765727;80;21049;-62
2021/12/03 13:11:29;;;;;;;7.15;5.53;;;;;;;11.26;51.23;98510.09;1748471;81;21093;-65
2021/12/03 13:13:55;;;;;;;6.45;5.28;;;;;;;11.27;51.99;98514.41;1746334;81;21035;-65
2021/12/03 14:00:31;;;;;;;6.15;5.45;;;;;;;12.21;63.03;98655.82;1752324;80;21196;-64
2021/12/03 14:40:42;;;;;;;6.08;4.75;;;;;;;12.77;63.15;98685.98;1748159;81;21134;-62
2021/12/03 14:51:08;;;;;;;6.92;6.22;;;;;;;12.91;62.63;98695.28;1760485;80;21500;-62
2021/12/03 14:56:09;;;;;;;7.78;5.85;;;;;;;12.97;62.63;98717.10;1749014;81;21065;-61
2021/12/03 15:06:12;;;;;;;7.58;6.80;;;;;;;13.04;62.54;98727.24;1748962;81;21136;-64
2021/12/03 15:14:35;;;;;;;8.55;7.37;;;;;;;13.07;62.68;98789.47;1758240;80;20998;-64
2021/12/03 15:24:36;;;;;;;7.20;6.50;;;;;;;12.94;62.70;98814.80;1719116;81;21119;-63
2021/12/03 15:27:03;;;;;;;7.95;6.97;;;;;;;12.89;62.55;98814.10;1737168;81;21042;-64
2021/12/03 15:32:12;;;;;;;6.97;6.28;;;;;;;12.79;62.24;98825.17;1761391;81;21221;-65
2021/12/03 15:34:56;;;;;;;7.58;6.67;;;;;;;12.75;62.09;98829.28;1750513;81;26210;-65
2021/12/03 16:04:31;;;;;;;6.75;6.05;;;;;;;12.28;60.55;98872.31;1750547;80;21027;-64
2021/12/03 16:09:47;;;;;;;6.95;6.35;;;;;;;12.21;60.31;98872.83;1749800;81;21042;-66
2021/12/03 16:12:02;;;;;;;7.15;6.45;;;;;;;12.18;60.20;98882.02;1754593;81;21062;-65
2021/12/03 16:14:41;;;;;;;7.27;6.57;;;;;;;12.16;60.08;98887.23;1753143;81;21077;-67
2021/12/03 16:22:41;;;;;;;6.08;5.47;;;;;;;12.09;59.73;98883.23;1740994;81;21106;-62
2021/12/03 16:44:00;;;;;;;6.83;6.17;;;;;;;11.88;58.98;98918.73;1748061;81;21035;-63
2021/12/03 16:46:44;;;;;;;6.70;6.10;;;;;;;11.85;58.92;98912.97;1745915;81;21104;-63
2021/12/03 16:51:54;;;;;;;6.30;5.70;;;;;;;11.81;58.81;98921.85;1746177;81;21157;-65
2021/12/03 16:54:28;;;;;;;6.12;5.53;;;;;;;11.78;58.72;98930.22;1744773;80;21096;-63
2021/12/03 16:56:51;;;;;;;7.53;6.17;;;;;;;11.76;58.66;98925.59;1747923;80;21026;-62
2021/12/03 16:59:18;;;;;;;7.20;6.50;;;;;;;11.74;58.59;98935.13;1760120;80;21033;-64
2021/12/03 17:02:05;;;;;;;6.90;6.20;;;;;;;11.74;58.53;98944.93;1758588;80;21026;-67
2021/12/03 17:52:45;;;;;;;5.80;5.17;;;;;;;11.34;57.62;98996.52;1743465;80;21092;-65
2021/12/03 17:57:38;;;;;;;5.65;4.75;;;;;;;11.30;57.56;99008.52;1756806;80;21071;-63
2021/12/03 18:00:05;;;;;;;5.50;5.00;;;;;;;11.29;57.53;99013.55;1745980;80;21498;-64
2021/12/03 18:02:46;;;;;;;5.72;5.22;;;;;;;11.28;57.50;99005.23;1742852;80;21479;-64